sensor_id;sensor_type;location;lat;lon;timestamp;pressure;altitude;pressure_sealevel;temperature;humidity
12182;BME280;6154;51.550;12.138;2023-04-08T00:01:51;100960.25;;;12.14;56.08
12182;BME280;6154;51.550;12.138;2023-04-08T00:04:20;100969.66;;;12.20;55.84
12182;BME280;6154;51.550;12.138;2023-04-08T00:06:48;100962.81;;;12.16;55.97
12182;BME280;6154;51.550;12.138;2023-04-08T00:09:17;100963.84;;;12.13;56.48
12182;BME280;6154;51.550;12.138;2023-04-08T00:11:46;100972.41;;;12.18;55.96
12182;BME280;6154;51.550;12.138;2023-04-08T00:14:14;100972.50;;;12.17;56.21
12182;BME280;6154;51.550;12.138;2023-04-08T00:16:42;100971.00;;;12.11;56.55
12182;BME280;6154;51.550;12.138;2023-04-08T00:19:10;100970.41;;;12.06;56.76
12182;BME280;6154;51.550;12.138;2023-04-08T00:21:38;100972.19;;;12.05;57.81
12182;BME280;6154;51.550;12.138;2023-04-08T00:24:06;100968.78;;;12.03;57.98
12182;BME280;6154;51.550;12.138;2023-04-08T00:26:36;100963.84;;;12.13;56.35
12182;BME280;6154;51.550;12.138;2023-04-08T00:29:04;100973.44;;;12.16;56.12
12182;BME280;6154;51.550;12.138;2023-04-08T00:31:32;100967.50;;;12.11;57.10
12182;BME280;6154;51.550;12.138;2023-04-08T00:34:00;100960.09;;;12.17;55.89
12182;BME280;6154;51.550;12.138;2023-04-08T00:36:30;100961.78;;;12.18;55.95
12182;BME280;6154;51.550;12.138;2023-04-08T00:38:58;100967.78;;;12.22;55.50
12182;BME280;6154;51.550;12.138;2023-04-08T00:41:26;100967.78;;;12.22;55.81
12182;BME280;6154;51.550;12.138;2023-04-08T00:43:56;100967.09;;;12.18;56.08
12182;BME280;6154;51.550;12.138;2023-04-08T00:46:24;100964.53;;;12.17;56.40
12182;BME280;6154;51.550;12.138;2023-04-08T00:48:53;100966.25;;;12.18;56.15
12182;BME280;6154;51.550;12.138;2023-04-08T00:51:21;100966.56;;;12.12;57.16
12182;BME280;6154;51.550;12.138;2023-04-08T00:53:49;100973.53;;;12.14;56.20
12182;BME280;6154;51.550;12.138;2023-04-08T00:56:17;100972.81;;;12.11;56.62
12182;BME280;6154;51.550;12.138;2023-04-08T00:58:46;100974.78;;;12.07;57.07
12182;BME280;6154;51.550;12.138;2023-04-08T01:01:21;100961.25;;;12.12;56.38
12182;BME280;6154;51.550;12.138;2023-04-08T01:03:59;100965.03;;;12.07;58.28
12182;BME280;6154;51.550;12.138;2023-04-08T01:06:31;100970.16;;;12.11;57.84
12182;BME280;6154;51.550;12.138;2023-04-08T01:09:05;100969.88;;;11.99;59.24
12182;BME280;6154;51.550;12.138;2023-04-08T01:11:34;100971.44;;;12.03;57.13
12182;BME280;6154;51.550;12.138;2023-04-08T01:14:04;100975.63;;;12.07;56.57
12182;BME280;6154;51.550;12.138;2023-04-08T01:16:38;100972.13;;;12.07;56.60
12182;BME280;6154;51.550;12.138;2023-04-08T01:19:09;100976.25;;;12.13;56.25
12182;BME280;6154;51.550;12.138;2023-04-08T01:21:42;100978.44;;;12.04;58.56
12182;BME280;6154;51.550;12.138;2023-04-08T01:24:17;100977.34;;;12.08;57.05
12182;BME280;6154;51.550;12.138;2023-04-08T01:26:48;100973.91;;;12.06;58.11
12182;BME280;6154;51.550;12.138;2023-04-08T01:29:18;100976.41;;;11.92;58.71
12182;BME280;6154;51.550;12.138;2023-04-08T01:31:47;100977.66;;;12.02;57.18
12182;BME280;6154;51.550;12.138;2023-04-08T01:34:16;100979.06;;;12.09;56.75
12182;BME280;6154;51.550;12.138;2023-04-08T01:36:46;100973.59;;;12.13;56.18
12182;BME280;6154;51.550;12.138;2023-04-08T01:39:16;100973.06;;;12.06;57.32
12182;BME280;6154;51.550;12.138;2023-04-08T01:41:48;100976.66;;;12.05;57.12
12182;BME280;6154;51.550;12.138;2023-04-08T01:44:17;100975.34;;;11.96;57.90
12182;BME280;6154;51.550;12.138;2023-04-08T01:46:48;100981.66;;;11.94;58.55
12182;BME280;6154;51.550;12.138;2023-04-08T01:49:17;100982.41;;;11.78;60.65
12182;BME280;6154;51.550;12.138;2023-04-08T01:51:46;100980.44;;;11.84;59.57
12182;BME280;6154;51.550;12.138;2023-04-08T01:54:15;100982.22;;;11.83;59.01
12182;BME280;6154;51.550;12.138;2023-04-08T01:56:45;100972.03;;;11.91;58.18
12182;BME280;6154;51.550;12.138;2023-04-08T01:59:15;100971.78;;;11.78;59.71
12182;BME280;6154;51.550;12.138;2023-04-08T02:01:46;100974.62;;;11.75;60.98
12182;BME280;6154;51.550;12.138;2023-04-08T02:04:15;100971.28;;;11.89;57.90
12182;BME280;6154;51.550;12.138;2023-04-08T02:06:44;100970.81;;;11.81;59.29
12182;BME280;6154;51.550;12.138;2023-04-08T02:09:12;100962.56;;;11.87;58.37
12182;BME280;6154;51.550;12.138;2023-04-08T02:11:40;100963.00;;;11.95;57.52
12182;BME280;6154;51.550;12.138;2023-04-08T02:14:09;100969.34;;;11.93;58.04
12182;BME280;6154;51.550;12.138;2023-04-08T02:16:43;100966.59;;;11.94;58.49
12182;BME280;6154;51.550;12.138;2023-04-08T02:19:20;100970.03;;;11.96;57.86
12182;BME280;6154;51.550;12.138;2023-04-08T02:21:56;100959.81;;;11.89;58.14
12182;BME280;6154;51.550;12.138;2023-04-08T02:24:25;100963.16;;;11.92;58.20
12182;BME280;6154;51.550;12.138;2023-04-08T02:26:55;100968.63;;;11.89;57.83
12182;BME280;6154;51.550;12.138;2023-04-08T02:29:23;100969.25;;;11.94;57.91
12182;BME280;6154;51.550;12.138;2023-04-08T02:31:55;100971.09;;;11.92;58.02
12182;BME280;6154;51.550;12.138;2023-04-08T02:34:24;100968.03;;;11.84;58.95
12182;BME280;6154;51.550;12.138;2023-04-08T02:36:52;100968.87;;;11.85;58.30
12182;BME280;6154;51.550;12.138;2023-04-08T02:39:20;100974.06;;;11.69;59.90
12182;BME280;6154;51.550;12.138;2023-04-08T02:41:49;100973.03;;;11.71;59.67
12182;BME280;6154;51.550;12.138;2023-04-08T02:44:20;100978.53;;;11.86;57.88
12182;BME280;6154;51.550;12.138;2023-04-08T02:46:50;100977.34;;;11.74;59.54
12182;BME280;6154;51.550;12.138;2023-04-08T02:49:20;100981.84;;;11.72;59.65
12182;BME280;6154;51.550;12.138;2023-04-08T02:51:48;100986.06;;;11.76;58.97
12182;BME280;6154;51.550;12.138;2023-04-08T02:54:16;100979.19;;;11.72;59.51
12182;BME280;6154;51.550;12.138;2023-04-08T02:56:44;100984.19;;;11.78;58.94
12182;BME280;6154;51.550;12.138;2023-04-08T02:59:12;100983.00;;;11.85;58.25
12182;BME280;6154;51.550;12.138;2023-04-08T03:01:41;100994.53;;;11.84;59.10
12182;BME280;6154;51.550;12.138;2023-04-08T03:04:09;100992.31;;;11.75;59.97
12182;BME280;6154;51.550;12.138;2023-04-08T03:06:39;100991.06;;;11.65;60.43
12182;BME280;6154;51.550;12.138;2023-04-08T03:09:07;100987.38;;;11.50;63.10
12182;BME280;6154;51.550;12.138;2023-04-08T03:11:35;100986.88;;;11.42;64.01
12182;BME280;6154;51.550;12.138;2023-04-08T03:14:03;100982.13;;;11.31;64.58
12182;BME280;6154;51.550;12.138;2023-04-08T03:16:31;100983.34;;;11.60;60.55
12182;BME280;6154;51.550;12.138;2023-04-08T03:18:59;100985.50;;;11.52;61.21
12182;BME280;6154;51.550;12.138;2023-04-08T03:21:27;100984.41;;;11.39;63.90
12182;BME280;6154;51.550;12.138;2023-04-08T03:23:58;100995.59;;;11.63;60.61
12182;BME280;6154;51.550;12.138;2023-04-08T03:26:26;100988.94;;;11.71;59.85
12182;BME280;6154;51.550;12.138;2023-04-08T03:28:54;100991.69;;;11.70;59.86
12182;BME280;6154;51.550;12.138;2023-04-08T03:31:24;100999.16;;;11.79;59.05
12182;BME280;6154;51.550;12.138;2023-04-08T03:33:53;101003.44;;;11.83;58.92
12182;BME280;6154;51.550;12.138;2023-04-08T03:36:21;100998.25;;;11.80;59.17
12182;BME280;6154;51.550;12.138;2023-04-08T03:38:49;100995.88;;;11.57;61.85
12182;BME280;6154;51.550;12.138;2023-04-08T03:41:19;100995.50;;;11.47;62.47
12182;BME280;6154;51.550;12.138;2023-04-08T03:43:47;101000.19;;;11.59;61.32
12182;BME280;6154;51.550;12.138;2023-04-08T03:46:15;101008.09;;;11.42;63.70
12182;BME280;6154;51.550;12.138;2023-04-08T03:48:43;101012.53;;;11.41;63.47
12182;BME280;6154;51.550;12.138;2023-04-08T03:51:11;101021.06;;;11.48;62.61
12182;BME280;6154;51.550;12.138;2023-04-08T03:53:39;101020.19;;;11.11;66.39
12182;BME280;6154;51.550;12.138;2023-04-08T03:56:07;101018.28;;;11.32;64.71
12182;BME280;6154;51.550;12.138;2023-04-08T03:58:36;101018.84;;;11.39;63.45
12182;BME280;6154;51.550;12.138;2023-04-08T04:01:05;101025.75;;;11.43;64.25
12182;BME280;6154;51.550;12.138;2023-04-08T04:03:33;101026.50;;;11.45;62.51
12182;BME280;6154;51.550;12.138;2023-04-08T04:06:01;101026.03;;;11.37;64.70
12182;BME280;6154;51.550;12.138;2023-04-08T04:08:29;101028.19;;;11.29;65.14
12182;BME280;6154;51.550;12.138;2023-04-08T04:10:58;101024.88;;;11.42;63.05
12182;BME280;6154;51.550;12.138;2023-04-08T04:13:26;101022.34;;;11.39;63.88
12182;BME280;6154;51.550;12.138;2023-04-08T04:15:55;101023.53;;;11.51;62.57
12182;BME280;6154;51.550;12.138;2023-04-08T04:18:24;101028.00;;;11.50;63.98
12182;BME280;6154;51.550;12.138;2023-04-08T04:20:52;101033.78;;;11.59;62.06
12182;BME280;6154;51.550;12.138;2023-04-08T04:23:19;101019.47;;;11.63;61.88
12182;BME280;6154;51.550;12.138;2023-04-08T04:25:50;101021.88;;;11.67;60.79
12182;BME280;6154;51.550;12.138;2023-04-08T04:28:18;101025.22;;;11.71;60.35
12182;BME280;6154;51.550;12.138;2023-04-08T04:30:46;101025.78;;;11.77;59.63
12182;BME280;6154;51.550;12.138;2023-04-08T04:33:16;101026.63;;;11.78;59.69
12182;BME280;6154;51.550;12.138;2023-04-08T04:35:44;101022.69;;;11.87;59.06
12182;BME280;6154;51.550;12.138;2023-04-08T04:38:12;101027.91;;;11.88;59.19
12182;BME280;6154;51.550;12.138;2023-04-08T04:40:40;101033.50;;;11.82;60.40
12182;BME280;6154;51.550;12.138;2023-04-08T04:43:09;101038.81;;;11.82;59.68
12182;BME280;6154;51.550;12.138;2023-04-08T04:45:37;101049.03;;;11.72;60.98
12182;BME280;6154;51.550;12.138;2023-04-08T04:48:06;101044.56;;;11.73;60.89
12182;BME280;6154;51.550;12.138;2023-04-08T04:50:35;101047.66;;;11.83;59.54
12182;BME280;6154;51.550;12.138;2023-04-08T04:53:03;101063.75;;;11.78;60.71
12182;BME280;6154;51.550;12.138;2023-04-08T04:55:32;101063.13;;;11.73;61.26
12182;BME280;6154;51.550;12.138;2023-04-08T04:58:00;101065.91;;;11.70;61.65
12182;BME280;6154;51.550;12.138;2023-04-08T05:00:28;101065.19;;;11.85;59.94
12182;BME280;6154;51.550;12.138;2023-04-08T05:02:56;101064.19;;;11.88;59.66
12182;BME280;6154;51.550;12.138;2023-04-08T05:05:24;101075.28;;;11.77;60.91
12182;BME280;6154;51.550;12.138;2023-04-08T05:07:54;101063.50;;;11.84;60.18
12182;BME280;6154;51.550;12.138;2023-04-08T05:10:22;101072.50;;;11.80;60.79
12182;BME280;6154;51.550;12.138;2023-04-08T05:12:50;101064.88;;;11.91;59.44
12182;BME280;6154;51.550;12.138;2023-04-08T05:15:18;101061.28;;;11.92;59.57
12182;BME280;6154;51.550;12.138;2023-04-08T05:17:47;101065.81;;;11.90;59.88
12182;BME280;6154;51.550;12.138;2023-04-08T05:20:15;101062.31;;;11.90;60.43
12182;BME280;6154;51.550;12.138;2023-04-08T05:22:43;101065.59;;;11.95;60.02
12182;BME280;6154;51.550;12.138;2023-04-08T05:25:13;101070.06;;;11.94;60.45
12182;BME280;6154;51.550;12.138;2023-04-08T05:27:41;101071.03;;;11.92;60.55
12182;BME280;6154;51.550;12.138;2023-04-08T05:30:10;101089.69;;;11.90;60.55
12182;BME280;6154;51.550;12.138;2023-04-08T05:32:39;101075.78;;;12.02;59.58
12182;BME280;6154;51.550;12.138;2023-04-08T05:35:07;101075.09;;;11.99;60.01
12182;BME280;6154;51.550;12.138;2023-04-08T05:37:36;101076.59;;;12.04;59.45
12182;BME280;6154;51.550;12.138;2023-04-08T05:40:05;101078.94;;;12.11;59.03
12182;BME280;6154;51.550;12.138;2023-04-08T05:42:35;101093.69;;;11.99;60.75
12182;BME280;6154;51.550;12.138;2023-04-08T05:45:03;101093.06;;;11.94;61.12
12182;BME280;6154;51.550;12.138;2023-04-08T05:47:32;101091.88;;;11.99;60.73
12182;BME280;6154;51.550;12.138;2023-04-08T05:50:00;101097.53;;;11.74;63.56
12182;BME280;6154;51.550;12.138;2023-04-08T05:52:28;101097.13;;;11.65;64.40
12182;BME280;6154;51.550;12.138;2023-04-08T05:54:56;101093.50;;;11.85;62.79
12182;BME280;6154;51.550;12.138;2023-04-08T05:57:24;101098.66;;;11.69;64.16
12182;BME280;6154;51.550;12.138;2023-04-08T05:59:53;101100.00;;;11.77;63.19
12182;BME280;6154;51.550;12.138;2023-04-08T06:02:21;101106.69;;;11.86;62.64
12182;BME280;6154;51.550;12.138;2023-04-08T06:04:50;101108.56;;;11.84;62.76
12182;BME280;6154;51.550;12.138;2023-04-08T06:07:18;101108.50;;;11.86;62.18
12182;BME280;6154;51.550;12.138;2023-04-08T06:09:46;101107.97;;;11.96;61.02
12182;BME280;6154;51.550;12.138;2023-04-08T06:12:14;101107.56;;;11.87;62.85
12182;BME280;6154;51.550;12.138;2023-04-08T06:14:42;101113.19;;;11.98;61.13
12182;BME280;6154;51.550;12.138;2023-04-08T06:17:11;101115.59;;;12.02;60.92
12182;BME280;6154;51.550;12.138;2023-04-08T06:19:40;101110.94;;;12.07;60.85
12182;BME280;6154;51.550;12.138;2023-04-08T06:22:07;101107.03;;;12.15;59.68
12182;BME280;6154;51.550;12.138;2023-04-08T06:24:36;101119.81;;;12.06;61.10
12182;BME280;6154;51.550;12.138;2023-04-08T06:27:04;101107.81;;;12.17;59.50
12182;BME280;6154;51.550;12.138;2023-04-08T06:29:34;101116.06;;;12.11;61.62
12182;BME280;6154;51.550;12.138;2023-04-08T06:32:03;101131.47;;;12.04;61.58
12182;BME280;6154;51.550;12.138;2023-04-08T06:34:33;101135.75;;;12.06;61.79
12182;BME280;6154;51.550;12.138;2023-04-08T06:37:01;101126.59;;;12.12;61.95
12182;BME280;6154;51.550;12.138;2023-04-08T06:39:29;101137.28;;;12.11;61.31
12182;BME280;6154;51.550;12.138;2023-04-08T06:41:57;101134.69;;;11.92;64.13
12182;BME280;6154;51.550;12.138;2023-04-08T06:44:26;101132.41;;;12.03;62.06
12182;BME280;6154;51.550;12.138;2023-04-08T06:46:54;101138.81;;;12.16;61.17
12182;BME280;6154;51.550;12.138;2023-04-08T06:49:22;101142.06;;;12.21;61.29
12182;BME280;6154;51.550;12.138;2023-04-08T06:51:54;101141.38;;;12.18;61.55
12182;BME280;6154;51.550;12.138;2023-04-08T06:54:22;101138.87;;;12.32;60.46
12182;BME280;6154;51.550;12.138;2023-04-08T06:56:50;101158.56;;;12.28;62.03
12182;BME280;6154;51.550;12.138;2023-04-08T06:59:18;101165.81;;;12.24;62.53
12182;BME280;6154;51.550;12.138;2023-04-08T07:01:46;101169.47;;;12.22;61.95
12182;BME280;6154;51.550;12.138;2023-04-08T07:04:14;101162.31;;;12.24;61.87
12182;BME280;6154;51.550;12.138;2023-04-08T07:06:43;101166.28;;;12.15;62.86
12182;BME280;6154;51.550;12.138;2023-04-08T07:09:12;101171.66;;;12.14;63.59
12182;BME280;6154;51.550;12.138;2023-04-08T07:11:40;101167.06;;;12.34;62.33
12182;BME280;6154;51.550;12.138;2023-04-08T07:14:08;101173.09;;;12.02;65.58
12182;BME280;6154;51.550;12.138;2023-04-08T07:16:36;101165.25;;;12.18;64.21
12182;BME280;6154;51.550;12.138;2023-04-08T07:19:05;101177.78;;;12.33;63.28
12182;BME280;6154;51.550;12.138;2023-04-08T07:21:33;101181.81;;;12.23;63.38
12182;BME280;6154;51.550;12.138;2023-04-08T07:24:01;101180.31;;;12.17;64.26
12182;BME280;6154;51.550;12.138;2023-04-08T07:26:30;101176.19;;;12.29;63.84
12182;BME280;6154;51.550;12.138;2023-04-08T07:28:58;101179.25;;;12.38;63.11
12182;BME280;6154;51.550;12.138;2023-04-08T07:31:26;101175.81;;;12.54;61.89
12182;BME280;6154;51.550;12.138;2023-04-08T07:33:55;101180.66;;;12.46;63.22
12182;BME280;6154;51.550;12.138;2023-04-08T07:36:23;101179.56;;;12.67;61.73
12182;BME280;6154;51.550;12.138;2023-04-08T07:38:52;101182.59;;;12.77;61.44
12182;BME280;6154;51.550;12.138;2023-04-08T07:41:20;101175.87;;;12.70;62.56
12182;BME280;6154;51.550;12.138;2023-04-08T07:43:50;101169.59;;;12.88;61.18
12182;BME280;6154;51.550;12.138;2023-04-08T07:46:20;101179.50;;;13.02;60.77
12182;BME280;6154;51.550;12.138;2023-04-08T07:48:49;101169.19;;;13.13;60.52
12182;BME280;6154;51.550;12.138;2023-04-08T07:51:18;101171.12;;;13.27;60.22
12182;BME280;6154;51.550;12.138;2023-04-08T07:53:47;101178.59;;;13.36;59.88
12182;BME280;6154;51.550;12.138;2023-04-08T07:56:15;101186.91;;;13.12;62.24
12182;BME280;6154;51.550;12.138;2023-04-08T07:58:45;101194.62;;;13.17;61.23
12182;BME280;6154;51.550;12.138;2023-04-08T08:01:18;101199.28;;;13.13;61.78
12182;BME280;6154;51.550;12.138;2023-04-08T08:03:47;101204.50;;;13.15;61.44
12182;BME280;6154;51.550;12.138;2023-04-08T08:06:16;101200.66;;;13.20;61.30
12182;BME280;6154;51.550;12.138;2023-04-08T08:08:44;101200.53;;;13.23;60.74
12182;BME280;6154;51.550;12.138;2023-04-08T08:11:12;101202.34;;;13.23;60.61
12182;BME280;6154;51.550;12.138;2023-04-08T08:13:40;101213.41;;;13.14;61.80
12182;BME280;6154;51.550;12.138;2023-04-08T08:16:08;101210.50;;;13.18;60.79
12182;BME280;6154;51.550;12.138;2023-04-08T08:18:39;101211.38;;;13.19;61.11
12182;BME280;6154;51.550;12.138;2023-04-08T08:21:08;101214.31;;;13.30;60.64
12182;BME280;6154;51.550;12.138;2023-04-08T08:23:36;101220.22;;;13.19;62.14
12182;BME280;6154;51.550;12.138;2023-04-08T08:26:06;101219.13;;;13.23;61.38
12182;BME280;6154;51.550;12.138;2023-04-08T08:28:36;101217.53;;;13.37;60.30
12182;BME280;6154;51.550;12.138;2023-04-08T08:31:04;101226.84;;;13.28;61.21
12182;BME280;6154;51.550;12.138;2023-04-08T08:33:32;101235.03;;;13.41;60.75
12182;BME280;6154;51.550;12.138;2023-04-08T08:36:03;101231.00;;;13.34;60.79
12182;BME280;6154;51.550;12.138;2023-04-08T08:38:33;101227.41;;;13.50;60.04
12182;BME280;6154;51.550;12.138;2023-04-08T08:41:01;101239.75;;;13.36;61.45
12182;BME280;6154;51.550;12.138;2023-04-08T08:43:30;101234.16;;;13.40;61.62
12182;BME280;6154;51.550;12.138;2023-04-08T08:45:59;101239.41;;;13.42;61.36
12182;BME280;6154;51.550;12.138;2023-04-08T08:48:27;101229.97;;;13.52;60.12
12182;BME280;6154;51.550;12.138;2023-04-08T08:50:56;101245.94;;;13.52;61.12
12182;BME280;6154;51.550;12.138;2023-04-08T08:53:29;101253.19;;;13.33;61.67
12182;BME280;6154;51.550;12.138;2023-04-08T08:56:01;101251.09;;;13.55;61.20
12182;BME280;6154;51.550;12.138;2023-04-08T08:58:44;101249.03;;;13.60;61.01
12182;BME280;6154;51.550;12.138;2023-04-08T09:01:31;101262.09;;;13.65;60.83
12182;BME280;6154;51.550;12.138;2023-04-08T09:04:11;101256.19;;;13.75;62.23
12182;BME280;6154;51.550;12.138;2023-04-08T09:06:40;101262.47;;;13.90;61.99
12182;BME280;6154;51.550;12.138;2023-04-08T09:09:10;101268.56;;;14.08;60.97
12182;BME280;6154;51.550;12.138;2023-04-08T09:11:39;101266.16;;;14.19;61.38
12182;BME280;6154;51.550;12.138;2023-04-08T09:14:21;101269.16;;;14.29;61.02
12182;BME280;6154;51.550;12.138;2023-04-08T09:16:49;101266.16;;;14.51;60.91
12182;BME280;6154;51.550;12.138;2023-04-08T09:19:18;101270.81;;;14.47;59.66
12182;BME280;6154;51.550;12.138;2023-04-08T09:22:03;101264.53;;;14.48;59.66
12182;BME280;6154;51.550;12.138;2023-04-08T09:24:34;101277.28;;;14.42;60.10
12182;BME280;6154;51.550;12.138;2023-04-08T09:27:03;101271.37;;;14.68;58.53
12182;BME280;6154;51.550;12.138;2023-04-08T09:29:32;101270.22;;;14.72;59.17
12182;BME280;6154;51.550;12.138;2023-04-08T09:32:05;101282.31;;;14.93;59.28
12182;BME280;6154;51.550;12.138;2023-04-08T09:34:33;101273.81;;;14.87;58.82
12182;BME280;6154;51.550;12.138;2023-04-08T09:37:02;101279.84;;;15.05;58.56
12182;BME280;6154;51.550;12.138;2023-04-08T09:39:30;101284.75;;;15.27;58.15
12182;BME280;6154;51.550;12.138;2023-04-08T09:42:04;101278.56;;;15.40;58.44
12182;BME280;6154;51.550;12.138;2023-04-08T09:44:36;101283.22;;;15.51;57.65
12182;BME280;6154;51.550;12.138;2023-04-08T09:47:09;101286.00;;;15.49;57.66
12182;BME280;6154;51.550;12.138;2023-04-08T09:49:43;101273.91;;;15.87;57.20
12182;BME280;6154;51.550;12.138;2023-04-08T09:52:17;101284.28;;;16.32;56.87
12182;BME280;6154;51.550;12.138;2023-04-08T09:54:52;101278.44;;;16.54;56.54
12182;BME280;6154;51.550;12.138;2023-04-08T09:57:28;101287.50;;;16.79;55.68
12182;BME280;6154;51.550;12.138;2023-04-08T10:00:03;101279.03;;;17.24;54.95
12182;BME280;6154;51.550;12.138;2023-04-08T10:02:45;101285.13;;;17.39;54.48
12182;BME280;6154;51.550;12.138;2023-04-08T10:05:17;101285.53;;;17.33;53.89
12182;BME280;6154;51.550;12.138;2023-04-08T10:07:45;101284.91;;;17.04;54.67
12182;BME280;6154;51.550;12.138;2023-04-08T10:10:13;101286.78;;;17.02;54.31
12182;BME280;6154;51.550;12.138;2023-04-08T10:12:43;101292.59;;;16.69;54.43
12182;BME280;6154;51.550;12.138;2023-04-08T10:15:22;101289.16;;;16.94;54.39
12182;BME280;6154;51.550;12.138;2023-04-08T10:17:51;101292.91;;;17.04;54.24
12182;BME280;6154;51.550;12.138;2023-04-08T10:20:41;101288.31;;;17.32;53.91
12182;BME280;6154;51.550;12.138;2023-04-08T10:23:11;101289.19;;;17.45;51.27
12182;BME280;6154;51.550;12.138;2023-04-08T10:25:41;101299.91;;;17.70;53.18
12182;BME280;6154;51.550;12.138;2023-04-08T10:28:25;101287.16;;;17.87;52.89
12182;BME280;6154;51.550;12.138;2023-04-08T10:30:54;101289.75;;;18.12;52.15
12182;BME280;6154;51.550;12.138;2023-04-08T10:33:30;101297.78;;;17.75;52.81
12182;BME280;6154;51.550;12.138;2023-04-08T10:36:08;101296.91;;;17.49;52.22
12182;BME280;6154;51.550;12.138;2023-04-08T10:38:37;101292.47;;;17.23;52.49
12182;BME280;6154;51.550;12.138;2023-04-08T10:41:05;101293.59;;;17.46;53.26
12182;BME280;6154;51.550;12.138;2023-04-08T10:43:35;101293.91;;;17.29;52.39
12182;BME280;6154;51.550;12.138;2023-04-08T10:46:04;101291.22;;;17.41;52.47
12182;BME280;6154;51.550;12.138;2023-04-08T10:48:32;101287.28;;;17.47;52.37
12182;BME280;6154;51.550;12.138;2023-04-08T10:51:01;101293.91;;;17.67;52.37
12182;BME280;6154;51.550;12.138;2023-04-08T10:53:32;101284.56;;;17.60;52.48
12182;BME280;6154;51.550;12.138;2023-04-08T10:56:04;101279.72;;;18.03;51.87
12182;BME280;6154;51.550;12.138;2023-04-08T10:58:35;101286.50;;;17.83;51.76
12182;BME280;6154;51.550;12.138;2023-04-08T11:01:03;101293.44;;;17.98;51.82
12182;BME280;6154;51.550;12.138;2023-04-08T11:03:35;101290.00;;;18.09;51.96
12182;BME280;6154;51.550;12.138;2023-04-08T11:06:04;101290.87;;;17.97;51.72
12182;BME280;6154;51.550;12.138;2023-04-08T11:08:34;101289.84;;;17.87;50.93
12182;BME280;6154;51.550;12.138;2023-04-08T11:11:04;101284.16;;;17.53;51.69
12182;BME280;6154;51.550;12.138;2023-04-08T11:13:38;101286.94;;;17.39;51.50
12182;BME280;6154;51.550;12.138;2023-04-08T11:16:18;101285.75;;;17.43;51.43
12182;BME280;6154;51.550;12.138;2023-04-08T11:18:47;101285.53;;;17.59;51.24
12182;BME280;6154;51.550;12.138;2023-04-08T11:21:17;101296.25;;;17.71;50.96
12182;BME280;6154;51.550;12.138;2023-04-08T11:23:48;101286.62;;;17.81;51.05
12182;BME280;6154;51.550;12.138;2023-04-08T11:26:17;101284.69;;;17.96;50.96
12182;BME280;6154;51.550;12.138;2023-04-08T11:28:48;101289.03;;;18.10;50.77
12182;BME280;6154;51.550;12.138;2023-04-08T11:31:18;101285.84;;;18.05;50.02
12182;BME280;6154;51.550;12.138;2023-04-08T11:33:52;101284.16;;;17.78;49.50
12182;BME280;6154;51.550;12.138;2023-04-08T11:36:21;101286.41;;;17.59;49.84
12182;BME280;6154;51.550;12.138;2023-04-08T11:38:49;101292.72;;;17.58;49.86
12182;BME280;6154;51.550;12.138;2023-04-08T11:41:20;101289.50;;;17.66;50.32
12182;BME280;6154;51.550;12.138;2023-04-08T11:43:56;101296.03;;;17.49;50.72
12182;BME280;6154;51.550;12.138;2023-04-08T11:46:24;101288.34;;;17.44;50.16
12182;BME280;6154;51.550;12.138;2023-04-08T11:48:57;101297.53;;;17.40;50.92
12182;BME280;6154;51.550;12.138;2023-04-08T11:51:26;101290.03;;;17.20;50.09
12182;BME280;6154;51.550;12.138;2023-04-08T11:53:55;101294.97;;;17.51;50.63
12182;BME280;6154;51.550;12.138;2023-04-08T11:56:23;101283.63;;;17.48;50.70
12182;BME280;6154;51.550;12.138;2023-04-08T11:58:52;101299.25;;;17.79;50.44
12182;BME280;6154;51.550;12.138;2023-04-08T12:01:21;101292.72;;;17.96;50.08
12182;BME280;6154;51.550;12.138;2023-04-08T12:03:54;101292.00;;;18.18;49.86
12182;BME280;6154;51.550;12.138;2023-04-08T12:06:23;101292.50;;;18.23;49.49
12182;BME280;6154;51.550;12.138;2023-04-08T12:08:54;101294.25;;;18.12;49.75
12182;BME280;6154;51.550;12.138;2023-04-08T12:11:23;101291.78;;;17.85;49.51
12182;BME280;6154;51.550;12.138;2023-04-08T12:13:51;101292.62;;;17.72;50.27
12182;BME280;6154;51.550;12.138;2023-04-08T12:16:21;101303.94;;;17.63;49.94
12182;BME280;6154;51.550;12.138;2023-04-08T12:18:49;101289.19;;;17.70;50.25
12182;BME280;6154;51.550;12.138;2023-04-08T12:21:17;101295.38;;;17.84;49.99
12182;BME280;6154;51.550;12.138;2023-04-08T12:23:46;101296.78;;;17.89;50.04
12182;BME280;6154;51.550;12.138;2023-04-08T12:26:14;101305.59;;;17.78;49.81
12182;BME280;6154;51.550;12.138;2023-04-08T12:28:43;101295.22;;;17.74;50.32
12182;BME280;6154;51.550;12.138;2023-04-08T12:31:11;101298.84;;;17.86;49.52
12182;BME280;6154;51.550;12.138;2023-04-08T12:33:41;101299.22;;;18.05;49.59
12182;BME280;6154;51.550;12.138;2023-04-08T12:36:09;101297.69;;;18.14;49.74
12182;BME280;6154;51.550;12.138;2023-04-08T12:38:39;101298.91;;;18.33;49.06
12182;BME280;6154;51.550;12.138;2023-04-08T12:41:07;101296.06;;;18.48;49.40
12182;BME280;6154;51.550;12.138;2023-04-08T12:43:35;101301.03;;;18.41;49.64
12182;BME280;6154;51.550;12.138;2023-04-08T12:46:05;101300.16;;;18.41;49.16
12182;BME280;6154;51.550;12.138;2023-04-08T12:48:33;101291.03;;;18.43;49.04
12182;BME280;6154;51.550;12.138;2023-04-08T12:51:02;101293.16;;;18.27;48.43
12182;BME280;6154;51.550;12.138;2023-04-08T12:53:31;101292.59;;;18.34;48.44
12182;BME280;6154;51.550;12.138;2023-04-08T12:55:59;101293.09;;;18.39;48.76
12182;BME280;6154;51.550;12.138;2023-04-08T12:58:27;101297.84;;;18.36;48.45
12182;BME280;6154;51.550;12.138;2023-04-08T13:00:55;101294.34;;;18.23;49.32
12182;BME280;6154;51.550;12.138;2023-04-08T13:03:23;101290.25;;;17.80;49.69